Time;durP1;ratioP1;P1;durP2;ratioP2;P2;SDS_P1;SDS_P2;PMS_P1;PMS_P2;Temp;Humidity;BMP_temperature;BMP_pressure;BME280_temperature;BME280_humidity;BME280_pressure;Samples;Min_cycle;Max_cycle;Signal;HPM_P1;HPM_P2
2023/02/01 00:04:37;;;;;;;1999.90;999.90;;;;;;;4.26;100.00;101889.63;10460375;28;20044;-74
2023/02/01 00:09:39;;;;;;;1999.90;999.90;;;;;;;4.23;100.00;101878.44;10459234;28;20057;-75
2023/02/01 00:14:41;;;;;;;1999.90;999.90;;;;;;;4.34;100.00;101861.00;10467818;23;20103;-65
2023/02/01 00:19:44;;;;;;;1999.90;999.90;;;;;;;4.37;99.31;101860.09;10461123;28;20061;-64
2023/02/01 00:24:46;;;;;;;1999.90;999.90;;;;;;;4.46;99.83;101853.03;10459802;28;20053;-65
2023/02/01 00:29:48;;;;;;;1999.90;999.90;;;;;;;4.69;97.70;101849.25;10459829;28;20053;-65
2023/02/01 00:34:51;;;;;;;1999.90;999.90;;;;;;;4.60;99.31;101857.16;10459301;28;20064;-65
2023/02/01 00:39:55;;;;;;;1999.90;999.90;;;;;;;4.67;98.72;101844.94;10458563;28;20049;-65
2023/02/01 00:44:57;;;;;;;1999.90;999.90;;;;;;;4.67;99.79;101848.38;10458585;28;20063;-65
2023/02/01 00:50:00;;;;;;;1999.90;999.90;;;;;;;4.94;98.53;101839.31;10459067;28;20053;-64
2023/02/01 00:55:02;;;;;;;1999.90;999.90;;;;;;;4.99;99.10;101845.28;10457972;28;20119;-65
2023/02/01 01:00:05;;;;;;;1999.90;999.90;;;;;;;5.03;99.77;101820.97;10459526;28;20091;-65
2023/02/01 01:05:07;;;;;;;1999.90;999.90;;;;;;;5.12;98.94;101834.66;10458797;28;20065;-64
2023/02/01 01:10:10;;;;;;;1999.90;999.90;;;;;;;5.18;98.14;101829.38;10456619;28;20136;-65
2023/02/01 01:15:13;;;;;;;1999.90;999.90;;;;;;;5.13;98.11;101829.47;10457918;28;20060;-65
2023/02/01 01:20:16;;;;;;;1999.90;999.90;;;;;;;5.08;98.77;101828.69;10458102;28;20049;-65
2023/02/01 01:25:18;;;;;;;1999.90;999.90;;;;;;;5.01;98.60;101840.06;10457231;28;20056;-65
2023/02/01 01:30:21;;;;;;;1999.90;999.90;;;;;;;5.01;98.12;101822.75;10438075;28;20049;-65
2023/02/01 01:35:24;;;;;;;1999.90;999.90;;;;;;;5.02;97.20;101827.03;10457392;28;20048;-65
2023/02/01 01:40:27;;;;;;;1999.90;999.90;;;;;;;4.92;99.04;101830.69;10457336;28;20468;-65
2023/02/01 01:45:32;;;;;;;1999.90;999.90;;;;;;;4.86;99.63;101824.72;10453072;28;20487;-65
2023/02/01 01:50:37;;;;;;;1999.90;999.90;;;;;;;4.79;99.93;101817.06;10455921;28;20404;-65
2023/02/01 01:55:42;;;;;;;1999.90;999.90;;;;;;;4.79;99.57;101826.56;10456417;28;20064;-65
2023/02/01 02:00:45;;;;;;;1999.90;999.90;;;;;;;4.73;99.13;101829.28;10455830;28;20079;-65
2023/02/01 02:05:53;;;;;;;1999.90;999.90;;;;;;;4.64;100.00;101838.09;10437723;28;20057;-65
2023/02/01 02:10:59;;;;;;;1999.90;999.90;;;;;;;4.70;100.00;101826.75;10453656;28;20484;-65
2023/02/01 02:16:08;;;;;;;1999.90;999.90;;;;;;;4.73;100.00;101813.72;10455459;28;20061;-65
2023/02/01 02:21:25;;;;;;;1999.90;999.90;;;;;;;4.74;100.00;101794.66;10455023;28;20484;-65
2023/02/01 02:26:38;;;;;;;1999.90;999.90;;;;;;;4.63;100.00;101789.66;10453755;28;20065;-65
2023/02/01 02:31:47;;;;;;;1999.90;999.90;;;;;;;4.74;100.00;101792.06;10454959;28;20044;-65
2023/02/01 02:36:59;;;;;;;1999.90;999.90;;;;;;;4.63;100.00;101811.28;10456009;28;20057;-64
2023/02/01 02:48:19;;;;;;;1999.90;999.90;;;;;;;4.62;100.00;101794.00;10453704;28;20045;-64
2023/02/01 03:04:19;;;;;;;1999.90;999.90;;;;;;;4.94;100.00;101770.97;10453286;28;20053;-65
2023/02/01 03:09:32;;;;;;;1999.90;999.90;;;;;;;5.06;99.24;101775.94;10452505;28;20053;-64
2023/02/01 03:14:36;;;;;;;1999.90;999.90;;;;;;;5.11;98.50;101773.25;10453941;28;20488;-65
2023/02/01 03:19:48;;;;;;;1999.90;999.90;;;;;;;5.01;100.00;101764.81;10462233;28;20496;-64
2023/02/01 03:24:52;;;;;;;;;;;;;;;5.01;100.00;101738.84;10461907;28;20053;-65
2023/02/01 03:30:23;;;;;;;1999.90;999.90;;;;;;;5.05;98.92;101734.44;10443324;28;20272;-64
2023/02/01 03:35:45;;;;;;;1999.90;999.90;;;;;;;4.90;100.00;101740.78;10438712;28;20059;-65
2023/02/01 03:41:16;;;;;;;1999.90;999.90;;;;;;;4.98;100.00;101734.56;10445007;28;20056;-65
2023/02/01 03:46:41;;;;;;;1999.90;999.90;;;;;;;4.99;100.00;101736.28;10457933;28;20057;-65
2023/02/01 03:51:44;;;;;;;1999.90;999.90;;;;;;;4.89;100.00;101736.47;10461558;28;20080;-65
2023/02/01 03:56:48;;;;;;;1999.90;999.90;;;;;;;4.94;100.00;101737.22;10444499;28;20128;-65
2023/02/01 04:01:50;;;;;;;1999.90;999.90;;;;;;;5.12;100.00;101746.41;10461035;28;20049;-65
2023/02/01 04:06:52;;;;;;;1999.90;999.90;;;;;;;5.03;100.00;101750.88;10459787;28;20053;-65
2023/02/01 04:11:55;;;;;;;1999.90;999.90;;;;;;;4.98;100.00;101764.84;10460771;28;20053;-65
2023/02/01 04:16:57;;;;;;;1999.90;999.90;;;;;;;4.97;100.00;101765.72;10443351;28;20052;-64
2023/02/01 04:21:59;;;;;;;1999.90;999.90;;;;;;;4.92;100.00;101755.41;10460486;28;20049;-64
2023/02/01 04:27:02;;;;;;;1999.90;999.90;;;;;;;4.83;100.00;101751.25;10457296;28;20392;-65
2023/02/01 04:32:05;;;;;;;1999.90;999.90;;;;;;;4.83;100.00;101750.41;10460094;28;20334;-65
2023/02/01 04:37:07;;;;;;;1999.90;999.90;;;;;;;4.74;100.00;101759.22;10458818;28;20061;-65
2023/02/01 04:42:09;;;;;;;1999.90;999.90;;;;;;;4.74;100.00;101763.53;10459004;28;20492;-65
2023/02/01 04:47:12;;;;;;;1999.90;999.90;;;;;;;4.87;100.00;101774.56;10457550;28;20053;-65
2023/02/01 04:52:14;;;;;;;1999.90;999.90;;;;;;;4.92;100.00;101764.94;10459960;28;20053;-65
2023/02/01 04:57:16;;;;;;;1999.90;999.90;;;;;;;4.97;100.00;101760.53;10458049;28;20052;-64
2023/02/01 05:02:18;;;;;;;1999.90;999.90;;;;;;;5.08;100.00;101766.38;10459489;28;20103;-65
2023/02/01 05:07:21;;;;;;;1999.90;999.90;;;;;;;5.11;100.00;101752.47;10457661;28;20053;-65
2023/02/01 05:17:44;;;;;;;1999.90;999.90;;;;;;;5.20;100.00;101749.72;10458921;28;20107;-65
2023/02/01 05:22:46;;;;;;;1999.90;999.90;;;;;;;5.21;100.00;101748.81;10440643;28;20048;-65
2023/02/01 05:27:48;;;;;;;1999.90;999.90;;;;;;;5.23;100.00;101757.44;10457816;28;20115;-65
2023/02/01 05:32:52;;;;;;;1999.90;999.90;;;;;;;5.30;100.00;101743.44;10458512;28;20064;-65
2023/02/01 05:37:54;;;;;;;1999.90;999.90;;;;;;;5.34;100.00;101731.25;10457009;28;20049;-65
2023/02/01 05:42:56;;;;;;;1999.90;999.90;;;;;;;5.37;100.00;101731.19;10457104;28;20053;-65
2023/02/01 05:47:59;;;;;;;1999.90;999.90;;;;;;;5.40;100.00;101739.78;10456213;28;20061;-65
2023/02/01 05:53:01;;;;;;;1999.90;999.90;;;;;;;5.44;100.00;101755.28;10456282;28;20049;-65
2023/02/01 05:58:04;;;;;;;1999.90;999.90;;;;;;;5.43;100.00;101749.25;10457424;28;20116;-65
2023/02/01 06:03:06;;;;;;;1999.90;999.90;;;;;;;5.49;100.00;101756.06;10454508;28;20459;-65
2023/02/01 06:08:09;;;;;;;1999.90;999.90;;;;;;;5.51;100.00;101759.47;10455509;28;20095;-64
2023/02/01 06:13:11;;;;;;;1999.90;999.90;;;;;;;5.49;100.00;101756.06;10456631;28;20111;-65
2023/02/01 06:18:15;;;;;;;1999.90;999.90;;;;;;;5.36;100.00;101771.03;10456860;28;20053;-65
2023/02/01 06:23:18;;;;;;;1999.90;999.90;;;;;;;5.53;100.00;101757.69;10454033;28;20049;-65
2023/02/01 06:28:20;;;;;;;1999.90;999.90;;;;;;;5.58;100.00;101746.34;10454331;28;20530;-65
2023/02/01 06:33:22;;;;;;;1999.90;999.90;;;;;;;5.59;100.00;101757.56;10456497;28;20053;-65
2023/02/01 06:38:26;;;;;;;1999.90;999.90;;;;;;;5.58;99.84;101769.72;10454706;28;20511;-65
2023/02/01 06:43:28;;;;;;;1999.90;999.90;;;;;;;5.55;100.00;101768.94;10454700;28;20496;-65
2023/02/01 06:48:32;;;;;;;1999.90;999.90;;;;;;;5.77;100.00;101769.31;10454417;28;20048;-65
2023/02/01 06:53:34;;;;;;;1999.90;999.90;;;;;;;5.59;99.53;101783.56;10463558;28;20053;-65
2023/02/01 06:58:38;;;;;;;1999.90;999.90;;;;;;;5.59;100.00;101781.78;10463845;28;20049;-65
2023/02/01 07:03:41;;;;;;;1999.90;999.90;;;;;;;5.65;99.99;101788.63;10464253;28;20056;-65
2023/02/01 07:08:44;;;;;;;1999.90;999.90;;;;;;;5.69;99.90;101768.63;10460271;28;20485;-65
2023/02/01 07:13:46;;;;;;;1999.90;999.90;;;;;;;5.67;100.00;101778.22;10463547;28;20048;-65
2023/02/01 07:18:51;;;;;;;1999.90;999.90;;;;;;;5.52;100.00;101764.63;10445328;28;20455;-65
2023/02/01 07:23:54;;;;;;;1999.90;999.90;;;;;;;5.63;100.00;101774.81;10444363;28;20057;-65
2023/02/01 07:28:56;;;;;;;1999.90;999.90;;;;;;;5.63;100.00;101780.03;10461194;28;20045;-65
2023/02/01 07:33:59;;;;;;;1999.90;999.90;;;;;;;5.68;100.00;101785.09;10461386;28;20106;-65
2023/02/01 07:39:03;;;;;;;1999.90;999.90;;;;;;;5.63;100.00;101789.53;10462758;28;20056;-65
2023/02/01 07:44:05;;;;;;;1999.90;999.90;;;;;;;5.61;100.00;101776.56;10475660;28;20056;-65
2023/02/01 07:49:08;;;;;;;1999.90;999.90;;;;;;;5.64;100.00;101768.72;10450642;28;20059;-65
2023/02/01 07:54:10;;;;;;;1999.90;999.90;;;;;;;5.53;100.00;101775.88;10458291;28;20495;-65
2023/02/01 07:59:13;;;;;;;1999.90;999.90;;;;;;;5.54;100.00;101780.19;10462012;28;20546;-65
2023/02/01 08:04:15;;;;;;;1999.90;999.90;;;;;;;5.62;100.00;101773.09;10461203;28;20065;-65
2023/02/01 08:09:17;;;;;;;1999.90;999.90;;;;;;;5.49;100.00;101782.88;10459992;28;20052;-65
2023/02/01 08:14:20;;;;;;;1999.90;999.90;;;;;;;5.61;100.00;101789.56;10459881;28;20064;-65
2023/02/01 08:19:22;;;;;;;1999.90;999.90;;;;;;;5.61;100.00;101792.16;10461144;28;20385;-65
2023/02/01 08:24:25;;;;;;;1999.90;999.90;;;;;;;5.75;100.00;101810.94;10461126;28;20060;-65
2023/02/01 08:29:27;;;;;;;1999.90;999.90;;;;;;;5.66;100.00;101805.06;10457695;28;20045;-65
2023/02/01 08:34:30;;;;;;;1999.90;999.90;;;;;;;5.66;100.00;101811.09;10458880;28;20049;-65
2023/02/01 08:39:32;;;;;;;1999.90;999.90;;;;;;;5.61;100.00;101805.16;10496256;28;20106;-65
2023/02/01 08:44:36;;;;;;;1999.90;999.90;;;;;;;5.70;100.00;101794.59;10477905;28;20495;-65
2023/02/01 08:49:39;;;;;;;1999.90;999.90;;;;;;;6.01;99.64;101793.09;10464546;28;20466;-65
2023/02/01 08:54:41;;;;;;;1999.90;999.90;;;;;;;5.94;98.91;101800.97;10463088;28;20106;-65
2023/02/01 08:59:44;;;;;;;1999.90;999.90;;;;;;;6.71;97.16;101795.75;10476555;28;20411;-65
2023/02/01 09:04:46;;;;;;;1999.90;999.90;;;;;;;7.52;88.35;101786.66;10498610;28;20117;-65
2023/02/01 09:09:48;;;;;;;1999.90;999.90;;;;;;;8.00;88.99;101779.13;10496900;28;20119;-65
2023/02/01 09:14:51;;;;;;;1999.90;999.90;;;;;;;8.71;87.87;101766.41;10456939;28;20065;-66
2023/02/01 09:19:53;;;;;;;1999.90;999.90;;;;;;;9.34;82.59;101750.25;10454936;28;20056;-65
2023/02/01 09:24:55;;;;;;;1999.90;999.90;;;;;;;9.79;82.27;101756.44;10467822;28;20446;-65
2023/02/01 09:29:58;;;;;;;1999.90;999.90;;;;;;;7.60;86.27;101764.69;10498703;28;20106;-66
2023/02/01 09:35:00;;;;;;;1999.90;999.90;;;;;;;8.40;86.51;101768.31;10474627;28;20061;-66
2023/02/01 09:40:04;;;;;;;1999.90;999.90;;;;;;;9.54;81.73;101746.91;10451341;28;20052;-66
2023/02/01 09:45:36;;;;;;;1999.90;999.90;;;;;;;9.01;80.51;101758.44;10438598;28;20055;-68
2023/02/01 09:50:41;;;;;;;1999.90;999.90;;;;;;;9.65;79.97;101741.28;10382321;28;20049;-67
2023/02/01 09:55:46;;;;;;;1999.90;999.90;;;;;;;10.18;77.37;101763.63;10438363;28;20060;-67
2023/02/01 10:00:53;;;;;;;1999.90;999.90;;;;;;;8.19;83.05;101778.53;10457341;28;20095;-67
2023/02/01 10:06:01;;;;;;;1999.90;999.90;;;;;;;8.16;85.04;101766.44;10439713;28;20064;-68
2023/02/01 10:11:48;;;;;;;1999.90;999.90;;;;;;;7.97;85.04;101760.97;10449276;28;20052;-67
2023/02/01 10:17:08;;;;;;;1999.90;999.90;;;;;;;8.55;85.01;101783.50;10438437;28;20448;-66
2023/02/01 10:22:17;;;;;;;1999.90;999.90;;;;;;;7.46;86.57;101760.75;10455159;28;20051;-67
2023/02/01 10:27:26;;;;;;;1999.90;999.90;;;;;;;7.20;88.96;101754.56;10440224;28;20542;-67
2023/02/01 10:32:31;;;;;;;1999.90;999.90;;;;;;;7.15;89.94;101762.47;10455758;28;20045;-66
2023/02/01 10:37:34;;;;;;;1999.90;999.90;;;;;;;7.12;90.12;101751.31;10438870;28;20087;-66
2023/02/01 10:42:37;;;;;;;1999.90;999.90;;;;;;;7.09;91.49;101761.81;10453569;28;20045;-66
2023/02/01 10:47:39;;;;;;;1999.90;999.90;;;;;;;7.00;93.47;101739.47;10454487;28;20472;-68
2023/02/01 10:52:47;;;;;;;1999.90;999.90;;;;;;;6.74;95.01;101740.16;10455191;28;20056;-65
2023/02/01 10:58:00;;;;;;;1999.90;999.90;;;;;;;6.74;99.44;101751.44;10455569;28;20510;-66
2023/02/01 11:03:34;;;;;;;1999.90;999.90;;;;;;;6.55;100.00;101717.22;10454308;28;20492;-66
2023/02/01 11:09:01;;;;;;;1999.90;999.90;;;;;;;6.41;100.00;101760.97;10455431;28;20404;-67
2023/02/01 11:14:23;;;;;;;1999.90;999.90;;;;;;;6.56;100.00;101734.56;10432773;28;20407;-67
2023/02/01 11:19:26;;;;;;;1999.90;999.90;;;;;;;6.47;100.00;101732.16;10455513;28;20057;-68
2023/02/01 11:24:38;;;;;;;1999.90;999.90;;;;;;;6.54;100.00;101732.88;10455066;28;20512;-67
2023/02/01 11:29:43;;;;;;;1999.90;999.90;;;;;;;6.60;100.00;101709.31;10455113;28;20071;-66
2023/02/01 11:35:05;;;;;;;1999.90;999.90;;;;;;;6.62;100.00;101731.81;10454527;28;20053;-66
2023/02/01 11:40:16;;;;;;;1999.90;999.90;;;;;;;6.81;99.61;101702.69;10440791;28;20055;-68
2023/02/01 11:45:30;;;;;;;1999.90;999.90;;;;;;;6.63;99.78;101697.06;10460716;28;20056;-68
2023/02/01 11:50:57;;;;;;;1999.90;999.90;;;;;;;6.72;100.00;101721.13;10460332;28;20049;-67
2023/02/01 11:56:23;;;;;;;1999.90;999.90;;;;;;;6.46;100.00;101714.88;10444542;28;20056;-67
2023/02/01 12:01:44;;;;;;;1999.90;999.90;;;;;;;6.43;100.00;101705.38;10440229;28;20420;-68
2023/02/01 12:07:09;;;;;;;1999.90;999.90;;;;;;;6.27;100.00;101725.72;10461093;28;20107;-68
2023/02/01 12:12:15;;;;;;;1999.90;999.90;;;;;;;6.32;100.00;101710.88;10446414;28;20044;-68
2023/02/01 12:18:01;;;;;;;1999.90;999.90;;;;;;;6.43;100.00;101696.72;10461100;28;20057;-69
2023/02/01 12:23:26;;;;;;;1999.90;999.90;;;;;;;6.42;100.00;101703.69;10413320;28;20057;-68
2023/02/01 12:29:05;;;;;;;1999.90;999.90;;;;;;;6.50;100.00;101712.13;10423477;23;20053;-67
2023/02/01 12:34:46;;;;;;;1999.90;999.90;;;;;;;6.76;100.00;101691.50;10325914;28;20066;-67
2023/02/01 12:40:00;;;;;;;1999.90;999.90;;;;;;;6.72;100.00;101695.09;10346020;28;20045;-67
2023/02/01 12:45:25;;;;;;;1999.90;999.90;;;;;;;6.88;100.00;101693.81;10375724;28;20062;-66
2023/02/01 12:50:28;;;;;;;1999.90;999.90;;;;;;;6.90;100.00;101705.03;10376349;28;20069;-67
2023/02/01 12:55:41;;;;;;;1999.90;999.90;;;;;;;6.92;100.00;101687.59;10376016;28;20421;-66
2023/02/01 13:01:00;;;;;;;1999.90;999.90;;;;;;;6.85;100.00;101681.72;10371664;28;20046;-67
2023/02/01 13:06:19;;;;;;;1999.90;999.90;;;;;;;7.00;100.00;101670.03;10307109;28;20068;-67
2023/02/01 13:11:34;;;;;;;1999.90;999.90;;;;;;;7.03;100.00;101667.34;10376369;28;20104;-67
2023/02/01 13:16:43;;;;;;;1999.90;999.90;;;;;;;6.89;100.00;101666.84;10374273;28;20054;-66
2023/02/01 13:21:53;;;;;;;1999.90;999.90;;;;;;;7.10;100.00;101677.59;10357400;28;20509;-67
2023/02/01 13:26:56;;;;;;;1999.90;999.90;;;;;;;7.00;100.00;101667.41;10360855;28;20050;-68
2023/02/01 13:32:34;;;;;;;1999.90;999.90;;;;;;;7.09;99.96;101657.63;10374057;28;20050;-67
2023/02/01 13:38:15;;;;;;;1999.90;999.90;;;;;;;7.11;99.63;101668.84;10332870;28;20054;-67
2023/02/01 13:43:24;;;;;;;1999.90;999.90;;;;;;;7.24;97.70;101672.81;10375523;28;20136;-67
2023/02/01 13:48:51;;;;;;;1999.90;999.90;;;;;;;7.20;97.48;101673.81;10375974;28;20120;-67
2023/02/01 13:53:53;;;;;;;1999.90;999.90;;;;;;;7.18;96.91;101680.81;10376687;28;20058;-67
2023/02/01 13:58:55;;;;;;;1999.90;999.90;;;;;;;7.17;96.24;101687.75;10373857;28;20108;-67
2023/02/01 14:04:05;;;;;;;1999.90;999.90;;;;;;;7.31;94.71;101679.53;10375944;28;20054;-67
2023/02/01 14:09:08;;;;;;;1999.90;999.90;;;;;;;7.46;93.38;101691.25;10375308;28;20104;-67
2023/02/01 14:14:16;;;;;;;1999.90;999.90;;;;;;;7.36;93.83;101689.81;10375910;28;20094;-67
2023/02/01 14:19:39;;;;;;;1999.90;999.90;;;;;;;7.42;92.72;101706.13;10374303;28;20515;-67
2023/02/01 14:24:42;;;;;;;1999.90;999.90;;;;;;;7.42;92.26;101694.88;10357981;28;20057;-67
2023/02/01 14:29:57;;;;;;;1999.90;999.90;;;;;;;7.47;92.72;101700.78;10373228;28;20054;-67
2023/02/01 14:35:01;;;;;;;1999.90;999.90;;;;;;;7.59;92.09;101710.84;10373614;28;20108;-67
2023/02/01 14:40:16;;;;;;;1999.90;999.90;;;;;;;7.46;92.12;101698.22;10372689;28;20049;-67
2023/02/01 14:45:26;;;;;;;1999.90;999.90;;;;;;;7.51;91.08;101698.94;10369215;28;20061;-67
2023/02/01 14:50:40;;;;;;;1999.90;999.90;;;;;;;7.42;91.51;101695.72;10372589;28;20073;-67
2023/02/01 14:55:55;;;;;;;1999.90;999.90;;;;;;;7.42;91.80;101700.91;10369246;28;20133;-67
2023/02/01 15:01:00;;;;;;;1999.90;999.90;;;;;;;7.38;92.25;101701.94;10374388;28;20058;-67
2023/02/01 15:06:05;;;;;;;1999.90;999.90;;;;;;;7.41;91.98;101704.44;10372914;28;20050;-67
2023/02/01 15:11:14;;;;;;;1999.90;999.90;;;;;;;7.37;91.74;101697.59;10358699;28;20511;-66
2023/02/01 15:16:17;;;;;;;1999.90;999.90;;;;;;;7.38;91.85;101701.06;10380664;28;20054;-66
2023/02/01 15:21:22;;;;;;;1999.90;999.90;;;;;;;7.34;92.92;101694.22;10380781;28;20560;-65
2023/02/01 15:26:32;;;;;;;1999.90;999.90;;;;;;;7.33;93.13;101706.41;10380224;28;20064;-66
2023/02/01 15:31:44;;;;;;;1999.90;999.90;;;;;;;7.36;93.66;101702.84;10380855;28;20061;-67
2023/02/01 15:36:47;;;;;;;1999.90;999.90;;;;;;;7.13;97.62;101704.38;10380985;28;20065;-67
2023/02/01 15:42:15;;;;;;;1999.90;999.90;;;;;;;7.11;99.39;101714.00;10365377;28;20050;-67
2023/02/01 15:47:20;;;;;;;1999.90;999.90;;;;;;;7.10;100.00;101717.50;10379552;28;20073;-67
2023/02/01 15:52:36;;;;;;;1999.90;999.90;;;;;;;7.15;99.65;101718.22;10379138;28;20108;-66
2023/02/01 15:57:40;;;;;;;1999.90;999.90;;;;;;;7.10;100.00;101727.91;10379050;28;20054;-67
2023/02/01 16:02:52;;;;;;;1999.90;999.90;;;;;;;7.06;100.00;101742.75;10361651;28;20496;-67
2023/02/01 16:08:04;;;;;;;1999.90;999.90;;;;;;;7.13;100.00;101739.97;10379650;28;20057;-66
2023/02/01 16:13:06;;;;;;;1999.90;999.90;;;;;;;7.13;100.00;101750.38;10378988;28;20129;-67
2023/02/01 16:18:09;;;;;;;1999.90;999.90;;;;;;;7.15;99.64;101739.03;10379358;28;20062;-67
2023/02/01 16:23:12;;;;;;;1999.90;999.90;;;;;;;7.19;98.79;101750.22;10377283;28;20061;-67
2023/02/01 16:28:14;;;;;;;1999.90;999.90;;;;;;;7.27;97.76;101757.84;10377542;28;20058;-66
2023/02/01 16:33:21;;;;;;;1999.90;999.90;;;;;;;7.17;98.14;101759.84;10378066;28;20069;-66
2023/02/01 16:38:24;;;;;;;1999.90;999.90;;;;;;;7.24;97.74;101757.00;10378274;28;20484;-67
2023/02/01 16:43:26;;;;;;;1999.90;999.90;;;;;;;7.20;97.46;101764.97;10377632;28;20088;-66
2023/02/01 16:48:33;;;;;;;1999.90;999.90;;;;;;;7.35;96.32;101766.28;10378054;28;20144;-66
2023/02/01 16:53:35;;;;;;;1999.90;999.90;;;;;;;7.26;97.58;101770.00;10351263;28;20139;-66
2023/02/01 16:58:54;;;;;;;1999.90;999.90;;;;;;;7.24;98.25;101762.22;10394263;28;20483;-67
2023/02/01 17:03:57;;;;;;;1999.90;999.90;;;;;;;7.15;99.08;101765.09;10377798;28;20054;-67
2023/02/01 17:09:02;;;;;;;1999.90;999.90;;;;;;;7.11;99.34;101766.09;10377212;28;20054;-66
2023/02/01 17:14:16;;;;;;;1999.90;999.90;;;;;;;7.15;100.00;101766.84;10377036;28;20062;-66
2023/02/01 17:19:22;;;;;;;1999.90;999.90;;;;;;;7.15;100.00;101757.28;10344092;28;20053;-66
2023/02/01 17:24:28;;;;;;;1999.90;999.90;;;;;;;7.10;100.00;101798.22;10359056;28;20061;-66
2023/02/01 17:29:48;;;;;;;1999.90;999.90;;;;;;;7.12;100.00;101785.16;10360968;28;20057;-66
2023/02/01 17:34:51;;;;;;;1999.90;999.90;;;;;;;7.06;100.00;101778.34;10375756;28;20066;-67
2023/02/01 17:39:53;;;;;;;1999.90;999.90;;;;;;;7.13;100.00;101802.47;10375502;28;20050;-66
2023/02/01 17:44:59;;;;;;;1999.90;999.90;;;;;;;7.22;100.00;101787.47;10375477;28;20382;-67
2023/02/01 17:50:01;;;;;;;1999.90;999.90;;;;;;;7.19;100.00;101805.78;10357692;28;20413;-67
2023/02/01 17:55:21;;;;;;;1999.90;999.90;;;;;;;7.21;100.00;101800.53;10375654;28;20057;-67
2023/02/01 18:00:24;;;;;;;1999.90;999.90;;;;;;;7.10;100.00;101807.78;10358352;28;20060;-67
2023/02/01 18:05:39;;;;;;;1999.90;999.90;;;;;;;7.15;100.00;101805.91;10375392;28;20057;-66
2023/02/01 18:10:41;;;;;;;1999.90;999.90;;;;;;;7.11;100.00;101812.09;10367063;28;20048;-66
2023/02/01 18:15:44;;;;;;;1999.90;999.90;;;;;;;7.15;100.00;101805.91;10374613;28;20490;-66
2023/02/01 18:20:47;;;;;;;1999.90;999.90;;;;;;;7.12;100.00;101811.19;10375400;28;20058;-66
2023/02/01 18:25:51;;;;;;;1999.90;999.90;;;;;;;7.03;100.00;101792.31;10373057;28;20068;-66
2023/02/01 18:30:53;;;;;;;1999.90;999.90;;;;;;;7.15;100.00;101806.75;10366512;28;20501;-66
2023/02/01 18:35:56;;;;;;;1999.90;999.90;;;;;;;7.11;100.00;101799.94;10333283;28;20548;-66
2023/02/01 18:40:59;;;;;;;1999.90;999.90;;;;;;;7.05;100.00;101802.69;10340460;28;20053;-66
2023/02/01 18:46:02;;;;;;;1999.90;999.90;;;;;;;6.91;100.00;101795.25;10374941;28;20188;-67
2023/02/01 18:51:05;;;;;;;1999.90;999.90;;;;;;;6.81;100.00;101781.63;10380552;28;20060;-66
2023/02/01 18:56:11;;;;;;;1999.90;999.90;;;;;;;6.78;100.00;101792.09;10378353;28;20053;-66
2023/02/01 19:01:18;;;;;;;1999.90;999.90;;;;;;;6.88;100.00;101782.31;10365051;28;20050;-65
2023/02/01 19:06:21;;;;;;;1999.90;999.90;;;;;;;6.87;100.00;101810.06;10380102;28;20145;-66
2023/02/01 19:11:23;;;;;;;1999.90;999.90;;;;;;;6.85;100.00;101798.84;10378712;28;20060;-66
2023/02/01 19:16:25;;;;;;;1999.90;999.90;;;;;;;6.92;100.00;101825.59;10377638;28;20104;-66
2023/02/01 19:21:28;;;;;;;1999.90;999.90;;;;;;;7.12;100.00;101839.84;10381568;28;20082;-66
2023/02/01 19:26:30;;;;;;;1999.90;999.90;;;;;;;7.07;100.00;101837.34;10378957;28;20485;-67
2023/02/01 19:31:33;;;;;;;1999.90;999.90;;;;;;;7.09;100.00;101825.16;10378523;28;20412;-67
2023/02/01 19:36:38;;;;;;;1999.90;999.90;;;;;;;7.10;100.00;101824.25;10375501;28;20092;-66
2023/02/01 19:41:43;;;;;;;1999.90;999.90;;;;;;;7.08;100.00;101810.44;10378520;28;20045;-67
2023/02/01 19:46:46;;;;;;;1999.90;999.90;;;;;;;7.19;100.00;101804.94;10413201;28;20107;-67
2023/02/01 19:51:48;;;;;;;1999.90;999.90;;;;;;;7.12;100.00;101806.84;10380333;28;20057;-67
2023/02/01 19:56:51;;;;;;;1999.90;999.90;;;;;;;7.24;100.00;101823.88;10378130;28;20152;-67
2023/02/01 20:01:53;;;;;;;1999.90;999.90;;;;;;;7.12;100.00;101806.00;10377538;28;20054;-66
2023/02/01 20:06:55;;;;;;;1999.90;999.90;;;;;;;7.12;100.00;101825.06;10379830;28;20057;-67
2023/02/01 20:11:58;;;;;;;1999.90;999.90;;;;;;;7.27;100.00;101816.00;10377962;28;20413;-66
2023/02/01 20:17:00;;;;;;;1999.90;999.90;;;;;;;7.28;100.00;101820.31;10378826;28;20489;-67
2023/02/01 20:22:03;;;;;;;1999.90;999.90;;;;;;;7.38;100.00;101826.97;10377294;28;20441;-66
2023/02/01 20:27:05;;;;;;;1999.90;999.90;;;;;;;7.38;100.00;101834.78;10377824;28;20061;-67
2023/02/01 20:32:08;;;;;;;1999.90;999.90;;;;;;;7.40;100.00;101845.19;10375879;28;20050;-67
2023/02/01 20:37:10;;;;;;;1999.90;999.90;;;;;;;7.32;100.00;101832.34;10378059;28;20512;-67
2023/02/01 20:42:13;;;;;;;1999.90;999.90;;;;;;;7.40;100.00;101842.56;10378409;28;20050;-67
2023/02/01 20:47:15;;;;;;;1999.90;999.90;;;;;;;7.49;100.00;101836.25;10376286;28;20080;-67
2023/02/01 20:52:18;;;;;;;1999.90;999.90;;;;;;;7.47;100.00;101846.72;10377347;28;20053;-67
2023/02/01 20:57:20;;;;;;;1999.90;999.90;;;;;;;7.54;100.00;101852.59;10377986;28;20054;-66
2023/02/01 21:02:23;;;;;;;1999.90;999.90;;;;;;;7.58;100.00;101868.13;10377048;28;20112;-67
2023/02/01 21:07:25;;;;;;;1999.90;999.90;;;;;;;7.60;100.00;101879.34;10376478;28;20061;-65
2023/02/01 21:12:28;;;;;;;1999.90;999.90;;;;;;;7.63;100.00;101868.84;10372638;28;20112;-67
2023/02/01 21:17:31;;;;;;;1999.90;999.90;;;;;;;7.75;100.00;101885.91;10357340;28;20494;-67
2023/02/01 21:22:33;;;;;;;1999.90;999.90;;;;;;;7.69;100.00;101872.19;10375137;28;20382;-67
2023/02/01 21:27:36;;;;;;;1999.90;999.90;;;;;;;7.72;100.00;101872.09;10374302;28;20108;-67
2023/02/01 21:32:38;;;;;;;1999.90;999.90;;;;;;;7.81;100.00;101858.78;10373821;28;20134;-67
2023/02/01 21:37:40;;;;;;;1999.90;999.90;;;;;;;7.80;100.00;101863.16;10376415;28;20053;-67
2023/02/01 21:42:44;;;;;;;1999.90;999.90;;;;;;;7.70;100.00;101866.06;10356049;28;20064;-67
2023/02/01 21:47:47;;;;;;;1999.90;999.90;;;;;;;7.73;100.00;101876.41;10374916;28;20061;-67
2023/02/01 21:52:50;;;;;;;1999.90;999.90;;;;;;;7.77;100.00;101891.91;10375851;28;20112;-67
2023/02/01 21:57:53;;;;;;;1999.90;999.90;;;;;;;7.73;100.00;101887.69;10358284;28;20073;-67
2023/02/01 22:02:55;;;;;;;1999.90;999.90;;;;;;;7.67;100.00;101897.44;10374427;28;20046;-67
2023/02/01 22:07:57;;;;;;;1999.90;999.90;;;;;;;7.69;100.00;101908.69;10375168;28;20069;-66
2023/02/01 22:13:00;;;;;;;1999.90;999.90;;;;;;;7.72;100.00;101912.06;10373993;28;20173;-67
2023/02/01 22:18:02;;;;;;;1999.90;999.90;;;;;;;7.67;100.00;101926.13;10372122;28;20065;-66
2023/02/01 22:23:04;;;;;;;1999.90;999.90;;;;;;;7.74;100.00;101927.66;10370069;28;20098;-67
2023/02/01 22:28:07;;;;;;;1999.90;999.90;;;;;;;7.61;100.00;101930.56;10331390;28;20053;-67
2023/02/01 22:33:29;;;;;;;1999.90;999.90;;;;;;;7.72;100.00;101927.69;10352897;28;20104;-67
2023/02/01 22:38:34;;;;;;;1999.90;999.90;;;;;;;7.70;100.00;101929.50;10372135;28;20116;-68
2023/02/01 22:43:36;;;;;;;1999.90;999.90;;;;;;;7.63;100.00;101938.34;10372714;28;20052;-68